createdAt,value
2023-03-06T00:02:25.313Z,99664.78
2023-03-06T00:04:54.950Z,99661.81
2023-03-06T00:07:21.611Z,99663.34
2023-03-06T00:09:48.338Z,99659.94
2023-03-06T00:12:14.989Z,99655.88
2023-03-06T00:14:41.575Z,99666.94
2023-03-06T00:17:12.251Z,99660.66
2023-03-06T00:19:39.237Z,99650.19
2023-03-06T00:22:06.136Z,99653.69
2023-03-06T00:24:33.143Z,99650.13
2023-03-06T00:26:59.987Z,99660.56
2023-03-06T00:29:28.095Z,99652.13
2023-03-06T00:32:15.773Z,99652.88
2023-03-06T00:34:42.618Z,99646.66
2023-03-06T00:37:09.165Z,99651.22
2023-03-06T00:39:36.119Z,99648.00
2023-03-06T00:42:04.194Z,99648.72
2023-03-06T00:44:31.672Z,99642.34
2023-03-06T00:47:00.609Z,99641.19
2023-03-06T00:49:27.215Z,99638.63
2023-03-06T00:51:53.873Z,99640.25
2023-03-06T00:54:20.538Z,99633.41
2023-03-06T00:56:47.296Z,99624.44
2023-03-06T00:59:14.012Z,99618.16
2023-03-06T01:01:40.687Z,99626.31
2023-03-06T01:04:07.296Z,99620.63
2023-03-06T01:06:34.400Z,99618.38
2023-03-06T01:09:03.846Z,99612.19
2023-03-06T01:11:30.539Z,99617.59
2023-03-06T01:13:57.316Z,99619.50
2023-03-06T01:16:24.039Z,99608.78
2023-03-06T01:18:51.668Z,99605.44
2023-03-06T01:21:18.802Z,99609.16
2023-03-06T01:23:46.081Z,99603.19
2023-03-06T01:26:13.080Z,99603.56
2023-03-06T01:28:40.650Z,99600.28
2023-03-06T01:31:17.578Z,99599.41
2023-03-06T01:33:44.427Z,99601.59
2023-03-06T01:36:15.030Z,99596.28
2023-03-06T01:38:42.208Z,99596.97
2023-03-06T01:41:12.561Z,99595.13
2023-03-06T01:43:42.829Z,99592.75
2023-03-06T01:46:28.941Z,99579.97
2023-03-06T01:48:58.294Z,99589.91
2023-03-06T01:51:27.291Z,99586.53
2023-03-06T01:53:58.691Z,99576.34
2023-03-06T01:56:26.239Z,99584.13
2023-03-06T01:59:00.473Z,99588.59
2023-03-06T02:01:29.333Z,99582.44
2023-03-06T02:03:56.165Z,99584.03
2023-03-06T02:06:22.880Z,99588.59
2023-03-06T02:08:51.201Z,99578.13
2023-03-06T02:11:22.578Z,99578.25
2023-03-06T02:13:49.984Z,99577.91
2023-03-06T02:16:20.189Z,99579.47
2023-03-06T02:18:47.266Z,99571.81
2023-03-06T02:21:20.427Z,99568.63
2023-03-06T02:23:50.203Z,99565.38
2023-03-06T02:26:18.162Z,99572.22
2023-03-06T02:28:44.869Z,99564.41
2023-03-06T02:31:35.763Z,99565.28
2023-03-06T02:34:02.512Z,99556.66
2023-03-06T02:36:29.957Z,99559.63
2023-03-06T02:38:57.256Z,99550.00
2023-03-06T02:41:24.488Z,99558.44
2023-03-06T02:43:54.514Z,99554.19
2023-03-06T02:46:21.234Z,99556.56
2023-03-06T02:48:47.981Z,99547.00
2023-03-06T02:51:19.939Z,99551.69
2023-03-06T02:53:46.771Z,99541.19
2023-03-06T02:56:13.454Z,99538.94
2023-03-06T02:58:41.582Z,99542.88
2023-03-06T03:01:08.602Z,99539.09
2023-03-06T03:03:35.434Z,99537.63
2023-03-06T03:06:03.703Z,99535.13
2023-03-06T03:08:38.930Z,99545.47
2023-03-06T03:11:05.739Z,99525.13
2023-03-06T03:13:42.246Z,99530.59
2023-03-06T03:16:15.496Z,99528.81
2023-03-06T03:18:44.676Z,99532.31
2023-03-06T03:21:15.251Z,99528.28
2023-03-06T03:23:41.920Z,99524.59
2023-03-06T03:26:08.594Z,99515.56
2023-03-06T03:28:37.133Z,99516.50
2023-03-06T03:31:08.961Z,99512.06
2023-03-06T03:33:36.050Z,99521.22
2023-03-06T03:36:04.610Z,99519.91
2023-03-06T03:38:33.738Z,99512.38
2023-03-06T03:41:04.091Z,99511.78
2023-03-06T03:43:31.786Z,99505.22
2023-03-06T03:45:59.613Z,99511.09
2023-03-06T03:48:28.543Z,99505.31
2023-03-06T03:51:02.107Z,99499.97
2023-03-06T03:53:31.936Z,99502.84
2023-03-06T03:55:59.496Z,99506.13
2023-03-06T03:58:30.177Z,99489.50
2023-03-06T04:00:57.079Z,99502.22
2023-03-06T04:03:23.647Z,99498.63
2023-03-06T04:05:50.336Z,99501.44
2023-03-06T04:08:16.975Z,99495.09
2023-03-06T04:10:46.478Z,99495.09
2023-03-06T04:13:17.131Z,99493.00
2023-03-06T04:15:46.579Z,99486.78
2023-03-06T04:18:13.424Z,99492.50
2023-03-06T04:20:40.433Z,99489.41
2023-03-06T04:23:07.222Z,99488.50
2023-03-06T04:25:33.935Z,99489.78
2023-03-06T04:28:02.633Z,99479.50
2023-03-06T04:30:30.011Z,99487.44
2023-03-06T04:32:57.384Z,99479.84
2023-03-06T04:35:24.140Z,99475.00
2023-03-06T04:38:01.242Z,99487.34
2023-03-06T04:40:31.099Z,99481.31
2023-03-06T04:42:58.629Z,99480.19
2023-03-06T04:45:25.865Z,99488.50
2023-03-06T04:47:52.520Z,99481.56
2023-03-06T04:50:19.788Z,99484.81
2023-03-06T04:52:46.645Z,99487.56
2023-03-06T04:55:14.501Z,99484.47
2023-03-06T04:57:41.907Z,99484.50
2023-03-06T05:00:10.338Z,99486.97
2023-03-06T05:02:36.935Z,99480.88
2023-03-06T05:05:04.413Z,99490.03
2023-03-06T05:07:31.112Z,99481.31
2023-03-06T05:09:57.632Z,99481.72
2023-03-06T05:12:24.211Z,99488.63
2023-03-06T05:14:50.824Z,99484.09
2023-03-06T05:17:18.384Z,99482.66
2023-03-06T05:19:45.326Z,99485.03
2023-03-06T05:22:11.990Z,99485.97
2023-03-06T05:24:38.514Z,99476.50
2023-03-06T05:27:05.180Z,99484.72
2023-03-06T05:29:31.746Z,99486.78
2023-03-06T05:32:01.345Z,99474.72
2023-03-06T05:34:29.329Z,99477.69
2023-03-06T05:36:55.907Z,99470.06
2023-03-06T05:39:22.490Z,99475.97
2023-03-06T05:41:49.036Z,99476.31
2023-03-06T05:44:17.843Z,99474.72
2023-03-06T05:46:44.402Z,99474.50
2023-03-06T05:49:11.065Z,99474.66
2023-03-06T05:51:37.634Z,99473.44
2023-03-06T05:54:04.534Z,99467.28
2023-03-06T05:56:33.474Z,99471.38
2023-03-06T05:59:02.189Z,99470.94
2023-03-06T06:01:29.877Z,99468.28
2023-03-06T06:03:56.650Z,99469.13
2023-03-06T06:06:26.413Z,99463.09
2023-03-06T06:08:53.075Z,99469.13
2023-03-06T06:11:20.880Z,99465.97
2023-03-06T06:13:51.632Z,99470.25
2023-03-06T06:16:19.755Z,99470.78
2023-03-06T06:18:54.766Z,99481.22
2023-03-06T06:21:21.638Z,99477.94
2023-03-06T06:23:48.398Z,99477.31
2023-03-06T06:26:15.770Z,99481.44
2023-03-06T06:28:44.474Z,99465.56
2023-03-06T06:31:12.433Z,99468.41
2023-03-06T06:33:39.608Z,99481.75
2023-03-06T06:36:14.490Z,99483.34
2023-03-06T06:38:41.149Z,99480.94
2023-03-06T06:43:54.688Z,99478.75
2023-03-06T06:47:02.704Z,99478.06
2023-03-06T06:49:08.222Z,99479.16
2023-03-06T06:51:35.029Z,99479.31
2023-03-06T06:54:05.669Z,99479.19
2023-03-06T06:56:32.911Z,99477.56
2023-03-06T06:59:15.566Z,99482.53
2023-03-06T07:01:43.296Z,99482.03
2023-03-06T07:04:11.709Z,99476.00
2023-03-06T07:06:38.395Z,99472.16
2023-03-06T07:09:05.755Z,99471.53
2023-03-06T07:11:32.439Z,99469.84
2023-03-06T07:13:59.347Z,99478.00
2023-03-06T07:16:28.224Z,99467.13
2023-03-06T07:18:55.016Z,99469.38
2023-03-06T07:21:21.827Z,99465.66
2023-03-06T07:23:48.685Z,99464.78
2023-03-06T07:26:17.593Z,99473.97
2023-03-06T07:28:52.321Z,99475.50
2023-03-06T07:31:21.586Z,99474.94
2023-03-06T07:33:57.679Z,99476.56
2023-03-06T07:36:24.428Z,99480.72
2023-03-06T07:38:52.899Z,99479.56
2023-03-06T07:41:22.350Z,99476.91
2023-03-06T07:43:49.424Z,99478.44
2023-03-06T07:46:16.828Z,99480.06
2023-03-06T07:48:45.765Z,99478.66
2023-03-06T07:51:18.946Z,99484.72
2023-03-06T07:53:46.188Z,99482.38
2023-03-06T07:56:12.828Z,99483.81
2023-03-06T07:58:40.881Z,99480.16
2023-03-06T08:01:09.213Z,99483.94
2023-03-06T08:03:41.257Z,99474.28
2023-03-06T08:06:12.704Z,99468.72
2023-03-06T08:08:40.790Z,99471.31
2023-03-06T08:11:08.109Z,99475.81
2023-03-06T08:13:38.517Z,99473.16
2023-03-06T08:16:06.062Z,99475.47
2023-03-06T08:18:33.262Z,99481.34
2023-03-06T08:21:03.000Z,99486.13
2023-03-06T08:23:32.406Z,99480.75
2023-03-06T08:26:00.532Z,99480.44
2023-03-06T08:28:28.618Z,99475.38
2023-03-06T08:30:55.801Z,99488.22
2023-03-06T08:33:22.975Z,99480.78
2023-03-06T08:35:49.701Z,99480.59
2023-03-06T08:38:16.550Z,99476.13
2023-03-06T08:40:44.027Z,99481.88
2023-03-06T08:43:14.311Z,99485.53
2023-03-06T08:45:41.870Z,99487.78
2023-03-06T08:48:09.443Z,99490.09
2023-03-06T08:50:41.250Z,99483.22
2023-03-06T08:53:08.451Z,99493.19
2023-03-06T08:55:39.501Z,99495.00
2023-03-06T08:58:06.300Z,99490.78
2023-03-06T09:00:33.657Z,99485.72
2023-03-06T09:03:04.043Z,99493.88
2023-03-06T09:05:31.329Z,99488.38
2023-03-06T09:07:58.043Z,99496.94
2023-03-06T09:10:26.010Z,99497.88
2023-03-06T09:12:54.991Z,99494.09
2023-03-06T09:15:23.192Z,99501.25
2023-03-06T09:17:51.310Z,99506.91
2023-03-06T09:20:20.366Z,99509.06
2023-03-06T09:22:48.200Z,99510.66
2023-03-06T09:25:17.655Z,99504.59
2023-03-06T09:27:44.314Z,99501.00
2023-03-06T09:30:11.595Z,99510.56
2023-03-06T09:32:38.447Z,99507.84
2023-03-06T09:35:08.490Z,99510.41
2023-03-06T09:37:35.108Z,99510.13
2023-03-06T09:40:02.058Z,99518.75
2023-03-06T09:42:29.139Z,99507.66
2023-03-06T09:44:58.359Z,99514.13
2023-03-06T09:47:41.249Z,99508.09
2023-03-06T09:50:14.063Z,99508.78
2023-03-06T09:52:59.955Z,99522.59
2023-03-06T09:55:31.224Z,99514.16
2023-03-06T09:58:20.041Z,99516.19
2023-03-06T10:00:55.281Z,99519.56
2023-03-06T10:03:21.945Z,99520.00
2023-03-06T10:06:01.492Z,99514.16
2023-03-06T10:08:36.406Z,99516.25
2023-03-06T10:11:07.655Z,99509.16
2023-03-06T10:13:39.695Z,99510.13
2023-03-06T10:16:22.064Z,99509.59
2023-03-06T10:18:49.250Z,99504.97
2023-03-06T10:21:23.121Z,99505.81
2023-03-06T10:24:07.774Z,99500.97
2023-03-06T10:26:40.491Z,99508.03
2023-03-06T10:29:15.514Z,99501.09
2023-03-06T10:31:44.752Z,99507.44
2023-03-06T10:34:11.874Z,99503.19
2023-03-06T10:36:38.941Z,99503.78
2023-03-06T10:39:14.120Z,99492.19
2023-03-06T10:41:40.815Z,99494.97
2023-03-06T10:44:09.030Z,99491.34
2023-03-06T10:46:37.228Z,99490.56
2023-03-06T10:49:06.325Z,99490.19
2023-03-06T10:51:36.167Z,99500.13
2023-03-06T10:54:23.089Z,99508.81
2023-03-06T10:56:49.936Z,99496.72
2023-03-06T10:59:17.795Z,99491.91
2023-03-06T11:01:46.241Z,99500.66
2023-03-06T11:04:23.407Z,99498.09
2023-03-06T11:07:04.919Z,99501.59
2023-03-06T11:09:33.278Z,99496.06
2023-03-06T11:12:18.381Z,99505.72
2023-03-06T11:14:45.096Z,99499.38
2023-03-06T11:17:32.192Z,99499.28
2023-03-06T11:20:18.416Z,99496.47
2023-03-06T11:23:07.274Z,99495.59
2023-03-06T11:25:37.339Z,99491.28
2023-03-06T11:28:11.526Z,99494.25
2023-03-06T11:30:42.276Z,99489.84
2023-03-06T11:33:13.803Z,99486.22
2023-03-06T11:35:52.052Z,99495.69
2023-03-06T11:38:37.626Z,99487.63
2023-03-06T11:41:08.200Z,99491.34
2023-03-06T11:43:41.394Z,99483.56
2023-03-06T11:46:17.689Z,99487.38
2023-03-06T11:48:49.735Z,99477.94
2023-03-06T11:51:25.990Z,99471.31
2023-03-06T11:53:53.789Z,99477.97
2023-03-06T11:56:27.027Z,99476.50
2023-03-06T11:58:53.646Z,99486.28
2023-03-06T12:01:26.658Z,99480.78
2023-03-06T12:04:07.308Z,99489.84
2023-03-06T12:06:45.895Z,99485.66
2023-03-06T12:09:12.793Z,99496.19
2023-03-06T12:11:41.717Z,99494.41
2023-03-06T12:14:32.744Z,99491.94
2023-03-06T12:16:59.496Z,99482.44
2023-03-06T12:19:46.561Z,99474.31
2023-03-06T12:22:25.449Z,99480.75
2023-03-06T12:25:07.909Z,99477.75
2023-03-06T12:27:58.279Z,99472.81
2023-03-06T12:30:33.316Z,99483.69
2023-03-06T12:33:03.028Z,99479.06
2023-03-06T12:35:55.073Z,99480.69
2023-03-06T12:38:24.791Z,99477.72
2023-03-06T12:41:02.254Z,99474.97
2023-03-06T12:43:47.598Z,99470.53
2023-03-06T12:46:16.651Z,99473.09
2023-03-06T12:48:49.173Z,99471.69
2023-03-06T12:51:20.374Z,99463.38
2023-03-06T12:53:47.974Z,99469.47
2023-03-06T12:56:15.728Z,99466.81
2023-03-06T12:58:52.988Z,99466.91
2023-03-06T13:01:24.208Z,99460.97
2023-03-06T13:03:54.341Z,99463.06
2023-03-06T13:06:49.868Z,99451.69
2023-03-06T13:09:39.611Z,99455.88
2023-03-06T13:12:21.908Z,99453.09
2023-03-06T13:14:54.980Z,99448.31
2023-03-06T13:17:33.165Z,99450.44
2023-03-06T13:20:16.683Z,99464.69
2023-03-06T13:22:45.006Z,99449.13
2023-03-06T13:25:12.218Z,99456.41
2023-03-06T13:27:47.453Z,99458.63
2023-03-06T13:30:20.591Z,99452.88
2023-03-06T13:32:49.240Z,99445.06
2023-03-06T13:35:34.568Z,99447.81
2023-03-06T13:38:01.929Z,99449.19
2023-03-06T13:40:36.183Z,99441.34
2023-03-06T13:43:09.920Z,99427.41
2023-03-06T13:45:41.527Z,99437.03
2023-03-06T13:48:46.256Z,99437.09
2023-03-06T13:51:24.176Z,99438.75
2023-03-06T13:53:53.133Z,99435.16
2023-03-06T13:56:22.918Z,99439.53
2023-03-06T13:59:09.408Z,99439.19
2023-03-06T14:01:44.424Z,99435.38
2023-03-06T14:04:27.441Z,99442.69
2023-03-06T14:07:04.903Z,99437.69
2023-03-06T14:09:43.171Z,99430.50
2023-03-06T14:12:33.247Z,99427.53
2023-03-06T14:15:04.586Z,99431.19
2023-03-06T14:17:37.757Z,99432.34
2023-03-06T14:20:15.605Z,99440.59
2023-03-06T14:22:42.372Z,99432.66
2023-03-06T14:25:15.079Z,99423.00
2023-03-06T14:27:48.169Z,99428.78
2023-03-06T14:30:16.971Z,99419.75
2023-03-06T14:32:43.936Z,99423.09
2023-03-06T14:35:27.839Z,99420.56
2023-03-06T14:37:56.911Z,99414.94
2023-03-06T14:40:32.192Z,99414.31
2023-03-06T14:43:17.146Z,99412.59
2023-03-06T14:45:49.712Z,99397.03
2023-03-06T14:48:16.467Z,99402.56
2023-03-06T14:50:47.298Z,99396.41
2023-03-06T14:53:16.457Z,99405.50
2023-03-06T14:56:02.731Z,99413.41
2023-03-06T14:58:36.024Z,99407.19
2023-03-06T15:01:05.292Z,99415.34
2023-03-06T15:03:42.629Z,99413.09
2023-03-06T15:06:20.505Z,99417.72
2023-03-06T15:08:48.739Z,99416.06
2023-03-06T15:11:15.403Z,99403.69
2023-03-06T15:13:42.533Z,99409.78
2023-03-06T15:16:24.913Z,99409.09
2023-03-06T15:18:54.599Z,99405.56
2023-03-06T15:21:21.930Z,99399.69
2023-03-06T15:23:50.022Z,99388.19
2023-03-06T15:26:28.030Z,99399.84
2023-03-06T15:29:08.153Z,99402.72
2023-03-06T15:31:36.744Z,99391.75
2023-03-06T15:34:06.578Z,99391.34
2023-03-06T15:36:37.324Z,99396.50
2023-03-06T15:39:26.453Z,99398.06
2023-03-06T15:41:59.452Z,99399.94
2023-03-06T15:44:26.409Z,99401.78
2023-03-06T15:47:06.637Z,99396.75
2023-03-06T15:49:36.496Z,99400.66
2023-03-06T15:52:03.114Z,99407.59
2023-03-06T15:54:31.925Z,99406.63
2023-03-06T15:56:59.458Z,99396.78
2023-03-06T15:59:27.972Z,99393.22
2023-03-06T16:01:54.677Z,99390.50
2023-03-06T16:04:21.445Z,99392.19
2023-03-06T16:06:48.186Z,99389.31
2023-03-06T16:09:17.191Z,99391.19
2023-03-06T16:11:44.944Z,99386.59
2023-03-06T16:14:21.537Z,99391.84
2023-03-06T16:16:51.117Z,99377.84
2023-03-06T16:19:28.219Z,99381.81
2023-03-06T16:21:58.131Z,99377.84
2023-03-06T16:24:26.318Z,99379.78
2023-03-06T16:26:53.801Z,99389.31
2023-03-06T16:29:22.160Z,99391.03
2023-03-06T16:31:48.958Z,99384.28
2023-03-06T16:34:15.946Z,99385.75
2023-03-06T16:36:42.652Z,99377.34
2023-03-06T16:39:13.247Z,99377.63
2023-03-06T16:41:39.884Z,99384.69
2023-03-06T16:44:10.237Z,99376.91
2023-03-06T16:46:41.564Z,99389.59
2023-03-06T16:49:12.729Z,99390.38
2023-03-06T16:51:40.483Z,99390.06
2023-03-06T16:54:07.113Z,99374.19
2023-03-06T16:56:36.838Z,99391.88
2023-03-06T16:59:03.594Z,99383.59
2023-03-06T17:01:30.340Z,99389.41
2023-03-06T17:03:57.075Z,99399.13
2023-03-06T17:06:25.930Z,99382.09
2023-03-06T17:08:52.680Z,99381.63
2023-03-06T17:11:22.258Z,99385.03
2023-03-06T17:13:49.279Z,99392.06
2023-03-06T17:16:16.622Z,99384.56
2023-03-06T17:18:44.433Z,99389.63
2023-03-06T17:21:11.282Z,99391.41
2023-03-06T17:23:38.234Z,99392.25
2023-03-06T17:26:09.724Z,99393.38
2023-03-06T17:28:36.903Z,99403.50
2023-03-06T17:31:05.326Z,99409.38
2023-03-06T17:33:32.083Z,99399.91
2023-03-06T17:35:59.572Z,99408.13
2023-03-06T17:38:26.920Z,99411.63
2023-03-06T17:40:53.769Z,99403.50
2023-03-06T17:43:20.583Z,99407.16
2023-03-06T17:45:47.526Z,99422.88
2023-03-06T17:48:17.317Z,99409.31
2023-03-06T17:50:45.873Z,99405.97
2023-03-06T17:53:14.469Z,99399.25
2023-03-06T17:55:41.489Z,99410.53
2023-03-06T17:58:09.127Z,99407.41
2023-03-06T18:00:37.557Z,99402.47
2023-03-06T18:03:04.246Z,99397.91
2023-03-06T18:05:30.885Z,99393.56
2023-03-06T18:07:57.627Z,99390.81
2023-03-06T18:10:24.818Z,99395.06
2023-03-06T18:12:51.469Z,99394.69
2023-03-06T18:15:18.651Z,99400.75
2023-03-06T18:17:45.693Z,99394.59
2023-03-06T18:20:12.521Z,99396.66
2023-03-06T18:22:39.173Z,99388.47
2023-03-06T18:25:09.330Z,99388.13
2023-03-06T18:27:35.995Z,99388.75
2023-03-06T18:30:09.576Z,99393.44
2023-03-06T18:32:36.327Z,99392.03
2023-03-06T18:35:02.951Z,99390.00
2023-03-06T18:37:30.239Z,99388.94
2023-03-06T18:39:56.979Z,99390.78
2023-03-06T18:42:24.694Z,99381.63
2023-03-06T18:44:51.312Z,99382.28
2023-03-06T18:47:18.013Z,99380.22
2023-03-06T18:49:46.348Z,99384.00
2023-03-06T18:52:13.050Z,99377.63
2023-03-06T18:54:39.753Z,99384.56
2023-03-06T18:57:06.463Z,99390.09
2023-03-06T18:59:33.317Z,99384.00
2023-03-06T19:02:00.157Z,99374.69
2023-03-06T19:04:27.182Z,99384.72
2023-03-06T19:06:54.833Z,99376.41
2023-03-06T19:09:21.548Z,99380.94
2023-03-06T19:11:52.578Z,99385.00
2023-03-06T19:14:21.543Z,99376.53
2023-03-06T19:16:51.464Z,99378.09
2023-03-06T19:19:18.189Z,99372.78
2023-03-06T19:21:44.854Z,99371.13
2023-03-06T19:24:14.484Z,99373.69
2023-03-06T19:26:43.942Z,99364.59
2023-03-06T19:29:10.602Z,99362.66
2023-03-06T19:31:37.258Z,99354.28
2023-03-06T19:34:04.167Z,99358.41
2023-03-06T19:36:33.928Z,99358.28
2023-03-06T19:39:04.697Z,99352.13
2023-03-06T19:41:33.540Z,99351.91
2023-03-06T19:44:02.482Z,99357.34
2023-03-06T19:46:29.563Z,99342.78
2023-03-06T19:49:00.486Z,99345.28
2023-03-06T19:51:27.256Z,99338.28
2023-03-06T19:53:53.865Z,99331.06
2023-03-06T19:56:26.173Z,99328.72
2023-03-06T19:58:53.056Z,99328.66
2023-03-06T20:01:23.117Z,99331.31
2023-03-06T20:03:50.712Z,99331.09
2023-03-06T20:06:18.672Z,99328.66
2023-03-06T20:08:45.813Z,99325.78
2023-03-06T20:11:16.730Z,99321.88
2023-03-06T20:13:47.411Z,99321.88
2023-03-06T20:16:14.609Z,99315.25
2023-03-06T20:18:41.226Z,99316.66
2023-03-06T20:21:08.017Z,99310.97
2023-03-06T20:23:34.637Z,99309.88
2023-03-06T20:26:04.136Z,99303.19
2023-03-06T20:28:30.752Z,99310.34
2023-03-06T20:30:57.638Z,99303.25
2023-03-06T20:33:26.545Z,99305.56
2023-03-06T20:36:01.785Z,99303.97
2023-03-06T20:38:28.575Z,99299.28
2023-03-06T20:40:56.191Z,99293.59
2023-03-06T20:43:23.762Z,99292.13
2023-03-06T20:46:02.975Z,99285.72
2023-03-06T20:48:30.052Z,99289.34
2023-03-06T20:51:04.565Z,99284.03
2023-03-06T20:53:35.243Z,99286.34
2023-03-06T20:56:01.924Z,99275.66
2023-03-06T20:58:31.735Z,99275.22
2023-03-06T21:01:00.290Z,99265.09
2023-03-06T21:03:29.494Z,99266.81
2023-03-06T21:05:56.940Z,99261.13
2023-03-06T21:08:24.145Z,99257.31
2023-03-06T21:10:51.365Z,99258.19
2023-03-06T21:13:19.107Z,99253.03
2023-03-06T21:15:47.634Z,99250.44
2023-03-06T21:18:14.738Z,99241.75
2023-03-06T21:20:41.727Z,99243.28
2023-03-06T21:23:09.226Z,99229.13
2023-03-06T21:25:35.886Z,99230.84
2023-03-06T21:28:02.593Z,99230.44
2023-03-06T21:30:32.302Z,99226.16
2023-03-06T21:32:58.877Z,99223.16
2023-03-06T21:35:25.614Z,99222.69
2023-03-06T21:37:52.293Z,99215.03
2023-03-06T21:40:19.154Z,99218.53
2023-03-06T21:42:45.845Z,99211.97
2023-03-06T21:45:12.763Z,99204.34
2023-03-06T21:47:41.008Z,99206.03
2023-03-06T21:50:08.956Z,99199.63
2023-03-06T21:52:35.715Z,99202.41
2023-03-06T21:55:02.340Z,99189.28
2023-03-06T21:57:29.109Z,99186.50
2023-03-06T21:59:55.753Z,99174.91
2023-03-06T22:02:22.421Z,99173.09
2023-03-06T22:04:50.214Z,99169.34
2023-03-06T22:07:16.924Z,99159.69
2023-03-06T22:09:43.501Z,99160.69
2023-03-06T22:12:10.064Z,99153.81
2023-03-06T22:14:39.003Z,99152.22
2023-03-06T22:17:05.569Z,99146.06
2023-03-06T22:19:32.247Z,99140.97
2023-03-06T22:21:58.846Z,99134.28
2023-03-06T22:24:25.462Z,99127.09
2023-03-06T22:26:52.030Z,99117.44
2023-03-06T22:29:18.703Z,99105.28
2023-03-06T22:31:45.427Z,99104.91
2023-03-06T22:34:12.131Z,99098.63
2023-03-06T22:36:38.820Z,99095.97
2023-03-06T22:39:05.402Z,99091.69
2023-03-06T22:41:32.225Z,99093.38
2023-03-06T22:44:00.133Z,99084.31
2023-03-06T22:46:26.896Z,99084.47
2023-03-06T22:48:55.780Z,99082.69
2023-03-06T22:51:22.452Z,99077.22
2023-03-06T22:53:49.397Z,99077.38
2023-03-06T22:56:17.390Z,99074.25
2023-03-06T22:58:45.007Z,99065.41
2023-03-06T23:01:22.550Z,99063.34
2023-03-06T23:03:50.253Z,99062.44
2023-03-06T23:06:18.429Z,99063.34
2023-03-06T23:08:48.548Z,99055.91
2023-03-06T23:11:17.395Z,99052.47
2023-03-06T23:14:03.411Z,99040.00
2023-03-06T23:16:48.622Z,99048.41
2023-03-06T23:19:33.654Z,99039.91
2023-03-06T23:22:18.719Z,99035.03
2023-03-06T23:25:04.317Z,99043.22
2023-03-06T23:27:31.415Z,99029.78
2023-03-06T23:29:59.093Z,99025.88
2023-03-06T23:32:26.077Z,99024.97
2023-03-06T23:34:52.771Z,99009.25
2023-03-06T23:37:19.477Z,99011.56
2023-03-06T23:39:46.619Z,99005.38
2023-03-06T23:42:13.279Z,98996.13
2023-03-06T23:44:39.874Z,99001.63
2023-03-06T23:47:06.707Z,98993.34
2023-03-06T23:49:33.378Z,98989.91
2023-03-06T23:52:00.366Z,98973.44
2023-03-06T23:54:26.979Z,98973.53
2023-03-06T23:56:53.641Z,98967.88
2023-03-06T23:59:20.684Z,98959.28
